Gulliver, Michigan
Current Conditions -  °F | °C
As of 9:15 AM on Thursday 18 Dec 2014 (Local Time) from KISQ Reporting Station
Clear Clear  
Wind Chill:   Ceiling: Unl
Heat Index: 19°   Visibility: 10mi
Dew Point: 14°   Wind: 12mph
Humidity: 84%   Direction: 20°NNE
Pressure: 30.25"   Gusts: 16mph
Location:  45.99°N, 86.01°W
Report Text: KISQ 181415Z AUTO 02010G14KT 10SM CLR M07/M10 A3025 RMK AO2 T10751098
Loading
Personal Weather Stations






























Interactive Weather Map New forecast layout! Learn more

10-Day Weather Forecast

Advertisements
Track Severe Weather on mobile